Time;durP1;ratioP1;P1;durP2;ratioP2;P2;SDS_P1;SDS_P2;PMS_P1;PMS_P2;Temp;Humidity;BMP_temperature;BMP_pressure;BME280_temperature;BME280_humidity;BME280_pressure;Samples;Min_cycle;Max_cycle;Signal;HPM_P1;HPM_P2
2023/08/20 00:00:18;;;;;;;;;;;;;;;21.92;100.00;96856.47;5044285;28;19971;-73
2023/08/20 00:02:46;;;;;;;;;;;;;;;21.89;100.00;96858.63;5044447;28;19947;-72
2023/08/20 00:05:12;;;;;;;;;;;;;;;21.88;100.00;96858.91;5047065;28;19963;-71
2023/08/20 00:07:38;;;;;;;;;;;;;;;21.86;100.00;96863.75;5048017;28;19947;-75
2023/08/20 00:10:04;;;;;;;;;;;;;;;21.86;100.00;96863.75;5048624;28;19975;-75
2023/08/20 00:12:30;;;;;;;;;;;;;;;21.83;100.00;96862.41;5048476;28;19956;-75
2023/08/20 00:15:06;;;;;;;;;;;;;;;21.80;100.00;96863.00;5048052;28;19957;-75
2023/08/20 00:17:34;;;;;;;;;;;;;;;21.77;100.00;96866.19;5048493;28;19958;-75
2023/08/20 00:20:00;;;;;;;;;;;;;;;21.75;100.00;96864.91;5048037;28;19966;-76
2023/08/20 00:22:26;;;;;;;;;;;;;;;21.73;100.00;96867.03;5048154;28;20230;-75
2023/08/20 00:24:53;;;;;;;;;;;;;;;21.68;100.00;96858.00;5048100;28;20137;-70
2023/08/20 00:27:19;;;;;;;;;;;;;;;21.66;100.00;96865.50;5047733;28;19955;-73
2023/08/20 00:29:45;;;;;;;;;;;;;;;21.63;100.00;96863.38;5047991;28;19955;-73
2023/08/20 00:32:11;;;;;;;;;;;;;;;21.63;100.00;96865.28;5048013;28;19959;-73
2023/08/20 00:34:37;;;;;;;;;;;;;;;21.62;100.00;96869.00;5048042;28;19947;-73
2023/08/20 00:37:03;;;;;;;;;;;;;;;21.59;100.00;96873.03;5030525;28;20243;-73
2023/08/20 00:39:29;;;;;;;;;;;;;;;21.57;100.00;96867.16;5047546;28;19955;-73
2023/08/20 00:41:55;;;;;;;;;;;;;;;21.54;100.00;96870.38;5048129;28;19968;-73
2023/08/20 00:44:21;;;;;;;;;;;;;;;21.51;100.00;96862.94;5047997;28;19951;-74
2023/08/20 00:46:47;;;;;;;;;;;;;;;21.48;100.00;96868.81;5047611;28;19964;-74
2023/08/20 00:49:13;;;;;;;;;;;;;;;21.45;100.00;96859.50;5047750;28;20170;-74
2023/08/20 00:51:39;;;;;;;;;;;;;;;21.46;100.00;96868.28;5047443;28;19963;-74
2023/08/20 00:54:05;;;;;;;;;;;;;;;21.44;100.00;96867.78;5047560;28;20253;-74
2023/08/20 00:56:31;;;;;;;;;;;;;;;21.42;100.00;96869.97;5047145;28;19966;-74
2023/08/20 00:58:58;;;;;;;;;;;;;;;21.39;100.00;96865.91;5047564;28;19996;-74
2023/08/20 01:01:23;;;;;;;;;;;;;;;21.38;100.00;96866.22;5047566;28;20237;-75
2023/08/20 01:03:49;;;;;;;;;;;;;;;21.37;100.00;96867.28;5029707;28;19954;-77
2023/08/20 01:06:28;;;;;;;;;;;;;;;21.36;100.00;96868.34;5047682;28;19946;-77
2023/08/20 01:09:00;;;;;;;;;;;;;;;21.33;100.00;96868.91;5047436;28;19970;-77
2023/08/20 01:11:30;;;;;;;;;;;;;;;21.29;100.00;96866.78;5047002;28;19967;-77
2023/08/20 01:13:57;;;;;;;;;;;;;;;21.27;100.00;96866.28;5047070;28;19966;-77
2023/08/20 01:16:23;;;;;;;;;;;;;;;21.25;100.00;96865.75;5046834;28;19961;-77
2023/08/20 01:18:49;;;;;;;;;;;;;;;21.23;100.00;96875.09;5047315;28;20143;-77
2023/08/20 01:21:35;;;;;;;;;;;;;;;21.22;100.00;96874.28;5047266;28;19949;-73
2023/08/20 01:24:10;;;;;;;;;;;;;;;21.21;100.00;96869.25;5047037;28;20146;-74
2023/08/20 01:26:49;;;;;;;;;;;;;;;21.15;100.00;96876.47;5047206;28;19961;-73
2023/08/20 01:29:15;;;;;;;;;;;;;;;21.11;100.00;96866.63;5046829;28;20132;-73
2023/08/20 01:31:43;;;;;;;;;;;;;;;21.07;100.00;96869.84;5046629;28;19990;-73
2023/08/20 01:34:08;;;;;;;;;;;;;;;21.06;100.00;96867.44;5029235;28;19955;-73
2023/08/20 01:36:34;;;;;;;;;;;;;;;21.04;100.00;96867.72;5046359;28;19994;-70
2023/08/20 01:39:00;;;;;;;;;;;;;;;21.05;100.00;96866.66;5045343;28;19955;-73
2023/08/20 01:41:26;;;;;;;;;;;;;;;21.05;100.00;96868.53;5046721;28;19968;-73
2023/08/20 01:43:52;;;;;;;;;;;;;;;21.05;100.00;96865.84;5046736;28;19949;-73
2023/08/20 01:46:18;;;;;;;;;;;;;;;21.05;100.00;96868.53;5046770;28;20018;-73
2023/08/20 01:48:44;;;;;;;;;;;;;;;21.04;100.00;96864.25;5046641;28;19957;-73
2023/08/20 01:51:10;;;;;;;;;;;;;;;21.03;100.00;96862.66;5046525;28;19959;-73
2023/08/20 01:53:36;;;;;;;;;;;;;;;21.02;100.00;96874.38;5046659;28;19955;-73
2023/08/20 01:56:02;;;;;;;;;;;;;;;21.00;100.00;96866.69;5046335;28;19961;-74
2023/08/20 01:58:28;;;;;;;;;;;;;;;20.99;100.00;96882.94;5046152;28;19961;-75
2023/08/20 02:00:54;;;;;;;;;;;;;;;20.96;100.00;96876.31;5046088;28;20003;-75
2023/08/20 02:03:20;;;;;;;;;;;;;;;20.95;100.00;96882.69;5046363;28;19962;-75
2023/08/20 02:05:45;;;;;;;;;;;;;;;20.93;100.00;96876.03;5046021;28;19936;-74
2023/08/20 02:08:11;;;;;;;;;;;;;;;20.90;100.00;96880.06;5046116;28;20036;-74
2023/08/20 02:10:37;;;;;;;;;;;;;;;20.88;100.00;96884.88;5046086;28;20248;-75
2023/08/20 02:13:04;;;;;;;;;;;;;;;20.84;100.00;96879.28;5046126;28;19993;-77
2023/08/20 02:15:30;;;;;;;;;;;;;;;20.81;100.00;96874.50;5046167;28;19955;-74
2023/08/20 02:17:56;;;;;;;;;;;;;;;20.79;100.00;96879.31;5046167;28;19954;-74
2023/08/20 02:20:22;;;;;;;;;;;;;;;20.80;100.00;96874.78;5046053;28;20268;-74
2023/08/20 02:22:48;;;;;;;;;;;;;;;20.77;100.00;96878.00;5046027;28;19959;-74
2023/08/20 02:25:14;;;;;;;;;;;;;;;20.75;100.00;96872.94;5046074;28;19994;-74
2023/08/20 02:27:40;;;;;;;;;;;;;;;20.73;100.00;96877.72;5045556;28;20165;-74
2023/08/20 02:30:06;;;;;;;;;;;;;;;20.72;100.00;96886.00;5045815;28;19955;-74
2023/08/20 02:32:33;;;;;;;;;;;;;;;20.68;100.00;96881.22;5045587;28;19951;-70
2023/08/20 02:34:59;;;;;;;;;;;;;;;20.67;100.00;96889.47;5011764;28;19966;-71
2023/08/20 02:37:24;;;;;;;;;;;;;;;20.65;100.00;96881.75;5045498;28;19979;-70
2023/08/20 02:39:50;;;;;;;;;;;;;;;20.63;100.00;96878.56;5045538;28;19955;-70
2023/08/20 02:42:16;;;;;;;;;;;;;;;20.63;100.00;96885.75;5045782;28;19956;-70
2023/08/20 02:44:42;;;;;;;;;;;;;;;20.61;100.00;96888.69;5045678;28;19957;-70
2023/08/20 02:47:08;;;;;;;;;;;;;;;20.60;100.00;96888.94;5045550;28;19954;-71
2023/08/20 02:49:34;;;;;;;;;;;;;;;20.59;100.00;96890.81;5045508;28;20001;-75
2023/08/20 02:51:59;;;;;;;;;;;;;;;20.59;100.00;96896.16;5045407;28;19966;-79
2023/08/20 02:54:25;;;;;;;;;;;;;;;20.57;100.00;96895.59;5059273;23;19981;-74
2023/08/20 02:56:51;;;;;;;;;;;;;;;20.57;100.00;96894.81;5045473;28;19956;-74
2023/08/20 02:59:17;;;;;;;;;;;;;;;20.54;100.00;96890.81;5045447;28;19959;-73
2023/08/20 03:01:43;;;;;;;;;;;;;;;20.52;100.00;96889.50;5045353;28;19958;-71
2023/08/20 03:04:10;;;;;;;;;;;;;;;20.49;100.00;96885.50;5044928;28;20211;-71
2023/08/20 03:06:35;;;;;;;;;;;;;;;20.46;100.00;96876.19;5044911;28;19960;-74
2023/08/20 03:09:03;;;;;;;;;;;;;;;20.45;100.00;96879.09;5045536;28;20138;-77
2023/08/20 03:11:29;;;;;;;;;;;;;;;20.44;100.00;96880.97;5045397;28;19964;-73
2023/08/20 03:13:55;;;;;;;;;;;;;;;20.43;100.00;96886.56;5027651;28;19967;-73
2023/08/20 03:16:21;;;;;;;;;;;;;;;20.40;100.00;96882.59;5045041;28;19959;-74
2023/08/20 03:18:47;;;;;;;;;;;;;;;20.39;100.00;96874.84;5044942;28;19953;-72
2023/08/20 03:21:13;;;;;;;;;;;;;;;20.36;100.00;96876.19;5044524;28;20008;-73
2023/08/20 03:23:38;;;;;;;;;;;;;;;20.34;100.00;96872.22;5044903;28;19955;-73
2023/08/20 03:26:04;;;;;;;;;;;;;;;20.32;100.00;96869.81;5045125;28;19957;-78
2023/08/20 03:28:30;;;;;;;;;;;;;;;20.31;100.00;96872.78;5027288;28;20234;-70
2023/08/20 03:30:59;;;;;;;;;;;;;;;20.30;100.00;96865.84;5026906;28;19973;-74
2023/08/20 03:33:25;;;;;;;;;;;;;;;20.29;100.00;96859.72;5044786;28;19959;-74
2023/08/20 03:35:50;;;;;;;;;;;;;;;20.28;100.00;96869.56;5044907;28;19954;-73
2023/08/20 03:38:16;;;;;;;;;;;;;;;20.28;100.00;96879.41;5026535;28;20184;-73
2023/08/20 03:40:42;;;;;;;;;;;;;;;20.27;100.00;96877.84;5026465;28;20139;-73
2023/08/20 03:43:08;;;;;;;;;;;;;;;20.26;100.00;96865.56;5010499;28;19958;-73
2023/08/20 03:45:34;;;;;;;;;;;;;;;20.26;100.00;96869.06;5044725;28;19965;-84
2023/08/20 03:47:59;;;;;;;;;;;;;;;20.25;100.00;96872.75;5044715;28;19964;-70
2023/08/20 03:50:25;;;;;;;;;;;;;;;20.24;100.00;96867.69;5044085;28;19960;-70
2023/08/20 03:52:51;;;;;;;;;;;;;;;20.23;100.00;96872.22;5044706;28;19963;-70
2023/08/20 03:55:17;;;;;;;;;;;;;;;20.22;100.00;96869.84;5044606;28;19954;-70
2023/08/20 03:57:43;;;;;;;;;;;;;;;20.20;100.00;96866.63;5044637;28;19964;-70
2023/08/20 04:00:09;;;;;;;;;;;;;;;20.18;100.00;96872.25;5044852;28;20004;-71
2023/08/20 04:02:35;;;;;;;;;;;;;;;20.20;100.00;96877.28;5044613;28;19947;-76
2023/08/20 04:05:01;;;;;;;;;;;;;;;20.17;100.00;96875.19;5027198;28;20258;-78
2023/08/20 04:07:27;;;;;;;;;;;;;;;20.17;100.00;96877.84;5044150;28;19952;-73
2023/08/20 04:09:52;;;;;;;;;;;;;;;20.15;100.00;96872.00;5044336;28;19963;-73
2023/08/20 04:12:18;;;;;;;;;;;;;;;20.13;100.00;96876.78;5044647;28;19963;-73
2023/08/20 04:14:44;;;;;;;;;;;;;;;20.10;100.00;96880.00;5042985;28;19962;-73
2023/08/20 04:17:10;;;;;;;;;;;;;;;20.08;100.00;96882.91;5044251;28;19959;-73
2023/08/20 04:19:36;;;;;;;;;;;;;;;20.05;100.00;96878.94;5044425;28;19961;-73
2023/08/20 04:22:02;;;;;;;;;;;;;;;20.02;100.00;96871.47;5026472;28;20285;-85
2023/08/20 04:24:27;;;;;;;;;;;;;;;20.00;100.00;96883.44;5026526;28;20263;-73
2023/08/20 04:26:53;;;;;;;;;;;;;;;19.98;100.00;96890.91;5044364;28;19957;-73
2023/08/20 04:29:19;;;;;;;;;;;;;;;19.95;100.00;96894.09;5026755;28;20256;-74
2023/08/20 04:31:45;;;;;;;;;;;;;;;19.93;100.00;96893.56;5044223;28;20238;-73
2023/08/20 04:34:11;;;;;;;;;;;;;;;19.92;100.00;96897.31;5044531;28;19973;-73
2023/08/20 04:36:36;;;;;;;;;;;;;;;19.89;100.00;96895.97;5043866;28;19957;-73
2023/08/20 04:39:02;;;;;;;;;;;;;;;19.87;100.00;96898.91;5044035;28;19963;-73
2023/08/20 04:41:28;;;;;;;;;;;;;;;19.87;100.00;96903.44;5044066;28;20024;-84
2023/08/20 04:43:54;;;;;;;;;;;;;;;19.88;100.00;96910.34;5043899;28;20257;-73
2023/08/20 04:46:20;;;;;;;;;;;;;;;19.86;100.00;96912.47;5043974;28;19961;-74
2023/08/20 04:48:46;;;;;;;;;;;;;;;19.83;100.00;96900.50;5044148;28;19966;-73
2023/08/20 04:51:12;;;;;;;;;;;;;;;19.82;100.00;96904.22;5046345;28;19986;-73
2023/08/20 04:53:38;;;;;;;;;;;;;;;19.82;100.00;96898.09;5047916;28;20242;-73
2023/08/20 04:56:04;;;;;;;;;;;;;;;19.81;100.00;96897.28;5030041;28;19963;-73
2023/08/20 04:58:29;;;;;;;;;;;;;;;19.82;100.00;96898.91;5047750;28;20290;-84
2023/08/20 05:00:55;;;;;;;;;;;;;;;19.83;100.00;96889.84;5047188;28;19962;-73
2023/08/20 05:03:21;;;;;;;;;;;;;;;19.87;100.00;96890.91;5047917;28;19945;-74
2023/08/20 05:05:50;;;;;;;;;;;;;;;19.93;100.00;96893.56;5047205;28;20065;-73
2023/08/20 05:08:16;;;;;;;;;;;;;;;19.97;100.00;96887.47;5047237;28;20137;-73
2023/08/20 05:10:42;;;;;;;;;;;;;;;20.03;100.00;96889.06;5047117;28;19963;-73
2023/08/20 05:13:08;;;;;;;;;;;;;;;20.10;100.00;96899.44;5029554;28;20018;-72
2023/08/20 05:15:34;;;;;;;;;;;;;;;20.16;100.00;96897.53;5047192;28;19957;-73
2023/08/20 05:18:00;;;;;;;;;;;;;;;20.23;100.00;96898.06;5047200;28;19982;-78
2023/08/20 05:20:26;;;;;;;;;;;;;;;20.31;100.00;96905.53;5047368;28;20205;-79
2023/08/20 05:22:51;;;;;;;;;;;;;;;20.39;100.00;96910.31;5047196;28;19953;-78
2023/08/20 05:25:17;;;;;;;;;;;;;;;20.49;100.00;96904.13;5047194;28;19966;-78
2023/08/20 05:27:43;;;;;;;;;;;;;;;20.60;100.00;96908.44;5047237;28;19957;-78
2023/08/20 05:30:09;;;;;;;;;;;;;;;20.75;100.00;96904.13;5046612;28;19992;-78
2023/08/20 05:32:35;;;;;;;;;;;;;;;20.91;100.00;96905.63;5047024;28;19957;-78
2023/08/20 05:35:01;;;;;;;;;;;;;;;21.11;100.00;96907.44;5047120;28;19989;-73
2023/08/20 05:37:27;;;;;;;;;;;;;;;21.32;100.00;96905.47;5047043;28;19969;-79
2023/08/20 05:39:53;;;;;;;;;;;;;;;21.45;100.00;96904.06;5029483;28;20146;-78
2023/08/20 05:42:18;;;;;;;;;;;;;;;21.53;100.00;96908.03;5046642;28;19950;-78
2023/08/20 05:44:44;;;;;;;;;;;;;;;21.73;100.00;96915.09;5046593;28;19954;-79
2023/08/20 05:47:10;;;;;;;;;;;;;;;21.96;100.00;96905.56;5046670;28;19982;-78
2023/08/20 05:49:36;;;;;;;;;;;;;;;22.23;100.00;96905.91;5046428;28;19960;-78
2023/08/20 05:52:02;;;;;;;;;;;;;;;22.52;100.00;96904.31;5046566;28;19959;-78
2023/08/20 05:54:28;;;;;;;;;;;;;;;22.80;100.00;96902.63;5046883;28;19966;-78
2023/08/20 05:56:54;;;;;;;;;;;;;;;23.08;100.00;96909.81;5046628;28;19952;-84
2023/08/20 05:59:20;;;;;;;;;;;;;;;23.36;100.00;96909.19;5046769;28;20151;-83
2023/08/20 06:01:45;;;;;;;;;;;;;;;23.63;100.00;96911.22;5046380;28;20227;-83
2023/08/20 06:04:11;;;;;;;;;;;;;;;23.88;100.00;96907.41;5046570;28;19975;-84
2023/08/20 06:06:37;;;;;;;;;;;;;;;24.10;100.00;96901.38;5046729;28;19957;-84
2023/08/20 06:09:03;;;;;;;;;;;;;;;24.31;100.00;96891.91;5046660;28;19953;-84
2023/08/20 06:11:29;;;;;;;;;;;;;;;24.29;100.00;96896.75;5028394;28;19970;-84
2023/08/20 06:13:55;;;;;;;;;;;;;;;24.29;100.00;96901.34;5028421;28;20242;-74
2023/08/20 06:16:20;;;;;;;;;;;;;;;24.30;100.00;96916.34;5028317;28;19944;-79
2023/08/20 06:18:46;;;;;;;;;;;;;;;24.31;100.00;96913.34;5028148;28;20254;-79
2023/08/20 06:21:13;;;;;;;;;;;;;;;24.18;100.00;96926.72;5046251;28;19986;-79
2023/08/20 06:23:39;;;;;;;;;;;;;;;23.99;100.00;96922.19;5046037;28;19963;-79
2023/08/20 06:26:04;;;;;;;;;;;;;;;23.87;100.00;96925.31;5046039;28;19961;-79
2023/08/20 06:28:30;;;;;;;;;;;;;;;23.78;100.00;96924.41;5046090;28;19963;-79
2023/08/20 06:30:56;;;;;;;;;;;;;;;23.78;100.00;96928.97;5045932;28;19986;-73
2023/08/20 06:33:22;;;;;;;;;;;;;;;23.93;100.00;96935.97;5027973;28;20235;-79
2023/08/20 06:35:48;;;;;;;;;;;;;;;24.18;100.00;96930.19;5046205;28;19958;-79
2023/08/20 06:38:14;;;;;;;;;;;;;;;24.49;100.00;96924.34;5045436;28;19958;-79
2023/08/20 06:40:40;;;;;;;;;;;;;;;24.66;100.00;96921.09;5045850;28;19964;-79
2023/08/20 06:43:05;;;;;;;;;;;;;;;24.71;100.00;96915.59;5045537;28;20278;-78
2023/08/20 06:45:31;;;;;;;;;;;;;;;24.76;100.00;96917.38;5045602;28;20168;-79
2023/08/20 06:47:57;;;;;;;;;;;;;;;24.70;100.00;96924.75;5027650;28;19948;-78
2023/08/20 06:50:23;;;;;;;;;;;;;;;24.63;100.00;96925.16;5045470;28;19954;-74
2023/08/20 06:52:49;;;;;;;;;;;;;;;24.69;100.00;96925.84;5045393;28;20183;-84
2023/08/20 06:55:15;;;;;;;;;;;;;;;24.60;100.00;96925.75;5027782;28;20010;-84
2023/08/20 06:57:41;;;;;;;;;;;;;;;24.56;100.00;96929.31;5027907;28;19961;-84
2023/08/20 07:00:07;;;;;;;;;;;;;;;24.62;100.00;96936.19;5045796;28;19993;-84
2023/08/20 07:02:33;;;;;;;;;;;;;;;24.67;100.00;96934.19;5045633;28;19960;-84
2023/08/20 07:04:58;;;;;;;;;;;;;;;24.96;100.00;96927.72;5045022;28;19969;-84
2023/08/20 07:07:24;;;;;;;;;;;;;;;25.28;100.00;96929.53;5045365;28;19951;-75
2023/08/20 07:09:50;;;;;;;;;;;;;;;25.35;100.00;96922.97;5044997;28;19968;-80
2023/08/20 07:12:16;;;;;;;;;;;;;;;25.58;100.00;96929.16;5044872;28;19959;-80
2023/08/20 07:14:42;;;;;;;;;;;;;;;25.63;100.00;96931.72;5027735;28;19994;-80
2023/08/20 07:17:08;;;;;;;;;;;;;;;25.49;100.00;96931.75;5045092;28;19960;-80
2023/08/20 07:19:33;;;;;;;;;;;;;;;25.39;100.00;96940.03;5044033;28;19958;-80
2023/08/20 07:21:59;;;;;;;;;;;;;;;25.53;100.00;96946.16;5045103;28;19959;-80
2023/08/20 07:24:25;;;;;;;;;;;;;;;25.64;100.00;96933.31;5010847;28;19970;-80
2023/08/20 07:26:51;;;;;;;;;;;;;;;25.83;100.00;96939.31;5010829;28;19965;-78
2023/08/20 07:29:17;;;;;;;;;;;;;;;26.03;100.00;96943.44;5044593;28;19960;-76
2023/08/20 07:31:43;;;;;;;;;;;;;;;26.20;100.00;96939.28;5027337;28;19966;-76
2023/08/20 07:34:09;;;;;;;;;;;;;;;26.23;100.00;96931.41;5045125;28;19955;-77
2023/08/20 07:36:35;;;;;;;;;;;;;;;26.32;100.00;96934.13;5044647;28;19965;-76
2023/08/20 07:39:01;;;;;;;;;;;;;;;26.51;100.00;96942.78;5044971;28;19968;-76
2023/08/20 07:41:26;;;;;;;;;;;;;;;26.73;100.00;96938.47;5045080;28;20027;-76
2023/08/20 07:43:53;;;;;;;;;;;;;;;26.92;100.00;96935.53;5044455;28;19994;-75
2023/08/20 07:46:18;;;;;;;;;;;;;;;27.10;100.00;96939.84;5044941;28;19952;-76
2023/08/20 07:48:45;;;;;;;;;;;;;;;27.28;99.75;96929.97;5026593;28;20129;-76
2023/08/20 07:51:11;;;;;;;;;;;;;;;27.40;96.45;96920.47;5044768;28;20125;-76
2023/08/20 07:53:37;;;;;;;;;;;;;;;27.46;97.51;96932.66;5044548;28;19967;-76
2023/08/20 07:56:03;;;;;;;;;;;;;;;27.47;95.95;96924.28;5026923;28;19986;-76
2023/08/20 07:58:29;;;;;;;;;;;;;;;27.53;96.98;96930.31;5044577;28;19954;-76
2023/08/20 08:00:55;;;;;;;;;;;;;;;27.60;96.34;96929.84;5044661;28;19963;-76
2023/08/20 08:03:21;;;;;;;;;;;;;;;27.63;94.26;96923.81;5044120;28;19952;-73
2023/08/20 08:05:48;;;;;;;;;;;;;;;27.67;95.08;96936.31;5044123;28;19960;-73
2023/08/20 08:08:14;;;;;;;;;;;;;;;27.68;94.27;96931.75;5044199;28;19954;-73
2023/08/20 08:10:40;;;;;;;;;;;;;;;27.69;90.85;96917.16;5044530;28;20169;-73
2023/08/20 08:13:06;;;;;;;;;;;;;;;27.77;93.63;96931.75;5044134;28;20024;-73
2023/08/20 08:15:32;;;;;;;;;;;;;;;27.82;92.48;96929.66;5044157;28;19998;-73
2023/08/20 08:17:58;;;;;;;;;;;;;;;27.89;92.14;96926.53;5044226;28;20195;-73
2023/08/20 08:20:24;;;;;;;;;;;;;;;27.91;91.85;96927.78;5044189;28;20012;-79
2023/08/20 08:22:49;;;;;;;;;;;;;;;27.95;93.33;96941.44;5044582;28;19954;-82
2023/08/20 08:25:15;;;;;;;;;;;;;;;27.98;94.24;96946.19;5045287;28;20075;-73
2023/08/20 08:27:41;;;;;;;;;;;;;;;28.06;91.14;96920.34;5048376;28;19962;-73
2023/08/20 08:30:07;;;;;;;;;;;;;;;28.06;92.12;96939.19;5048312;28;19956;-73
2023/08/20 08:32:33;;;;;;;;;;;;;;;28.13;88.92;96913.31;5048166;28;20028;-73
2023/08/20 08:34:59;;;;;;;;;;;;;;;28.17;88.55;96926.19;5047787;28;19948;-73
2023/08/20 08:37:24;;;;;;;;;;;;;;;28.22;88.46;96916.00;5048008;28;20028;-74
2023/08/20 08:39:50;;;;;;;;;;;;;;;28.27;84.41;96898.88;5048156;28;20066;-82
2023/08/20 08:42:18;;;;;;;;;;;;;;;28.32;87.28;96914.88;5048377;28;20182;-73
2023/08/20 08:44:45;;;;;;;;;;;;;;;28.42;86.69;96911.03;5047722;28;19965;-73
2023/08/20 08:47:11;;;;;;;;;;;;;;;28.49;85.80;96901.34;5047762;28;19958;-73
2023/08/20 08:49:37;;;;;;;;;;;;;;;28.51;83.46;96899.13;5047728;28;19957;-73
2023/08/20 08:52:04;;;;;;;;;;;;;;;28.54;84.88;96903.88;5047705;28;20013;-73
2023/08/20 08:54:32;;;;;;;;;;;;;;;28.54;83.45;96893.09;5047713;28;20146;-73
2023/08/20 08:56:58;;;;;;;;;;;;;;;28.54;84.58;96911.19;5029928;28;19964;-73
2023/08/20 08:59:23;;;;;;;;;;;;;;;28.62;86.38;96920.34;5047566;28;19988;-77
2023/08/20 09:01:49;;;;;;;;;;;;;;;28.65;81.21;96907.00;5047722;28;19959;-80
2023/08/20 09:04:15;;;;;;;;;;;;;;;28.67;79.94;96885.88;5047273;28;19945;-81
2023/08/20 09:06:48;;;;;;;;;;;;;;;28.69;83.71;96901.75;5030126;28;19956;-81
2023/08/20 09:09:14;;;;;;;;;;;;;;;28.66;80.86;96895.09;5047619;28;19965;-80
2023/08/20 09:11:40;;;;;;;;;;;;;;;28.72;79.97;96879.50;5047657;28;20185;-81
2023/08/20 09:14:06;;;;;;;;;;;;;;;28.81;76.92;96865.97;5047222;28;19976;-81
2023/08/20 09:16:32;;;;;;;;;;;;;;;28.93;80.54;96895.75;5047620;28;20002;-75
2023/08/20 09:19:01;;;;;;;;;;;;;;;29.03;80.39;96895.38;5046910;28;20014;-84
2023/08/20 09:21:30;;;;;;;;;;;;;;;29.09;78.25;96883.28;5047218;28;20244;-85
2023/08/20 09:24:01;;;;;;;;;;;;;;;29.09;74.67;96860.88;5047265;28;19969;-84
2023/08/20 09:26:26;;;;;;;;;;;;;;;29.09;78.98;96894.06;5029484;28;20239;-83
2023/08/20 09:28:55;;;;;;;;;;;;;;;29.13;76.05;96884.22;5046720;28;19957;-84
2023/08/20 09:31:36;;;;;;;;;;;;;;;29.19;81.67;96914.56;5046696;28;19964;-84
2023/08/20 09:34:02;;;;;;;;;;;;;;;29.24;72.23;96860.31;5047367;28;19949;-81
2023/08/20 09:36:32;;;;;;;;;;;;;;;29.29;72.92;96864.72;5045707;28;20256;-82
2023/08/20 09:39:02;;;;;;;;;;;;;;;29.35;72.13;96868.81;5046037;28;20424;-84
2023/08/20 09:41:28;;;;;;;;;;;;;;;29.41;71.22;96870.19;5046624;28;20148;-84
2023/08/20 09:43:58;;;;;;;;;;;;;;;29.46;72.39;96874.59;5046852;28;19961;-84
2023/08/20 09:46:24;;;;;;;;;;;;;;;29.48;74.07;96894.00;5046850;28;20136;-84
2023/08/20 09:48:56;;;;;;;;;;;;;;;29.43;69.15;96873.38;5046846;28;20243;-84
2023/08/20 09:51:26;;;;;;;;;;;;;;;29.42;70.84;96906.94;5047007;28;20149;-83
2023/08/20 09:54:10;;;;;;;;;;;;;;;29.45;67.31;96910.88;5046752;28;19953;-79
2023/08/20 09:56:38;;;;;;;;;;;;;;;29.44;70.18;96920.09;5046693;28;19961;-75
2023/08/20 09:59:04;;;;;;;;;;;;;;;29.49;70.46;96923.38;5028697;28;20240;-75
2023/08/20 10:01:30;;;;;;;;;;;;;;;29.57;70.24;96920.94;5028746;28;19963;-75
2023/08/20 10:03:56;;;;;;;;;;;;;;;29.66;71.11;96922.47;5046416;28;19957;-74
2023/08/20 10:06:23;;;;;;;;;;;;;;;29.75;70.89;96917.78;5046391;28;19975;-75
2023/08/20 10:08:50;;;;;;;;;;;;;;;29.85;72.11;96924.72;5046373;28;20169;-74
2023/08/20 10:11:16;;;;;;;;;;;;;;;29.93;67.74;96904.13;5046441;28;19958;-70
2023/08/20 10:13:42;;;;;;;;;;;;;;;29.95;67.26;96901.91;5046397;28;20168;-73
2023/08/20 10:16:08;;;;;;;;;;;;;;;30.01;68.62;96911.38;5027950;28;19945;-73
2023/08/20 10:18:35;;;;;;;;;;;;;;;30.12;70.33;96917.16;5046499;28;19958;-73
2023/08/20 10:21:01;;;;;;;;;;;;;;;30.21;67.49;96915.16;5046453;28;19961;-74
2023/08/20 10:23:26;;;;;;;;;;;;;;;30.24;64.17;96909.09;5046158;28;19956;-74
2023/08/20 10:25:53;;;;;;;;;;;;;;;30.31;68.14;96924.78;5046169;28;20022;-73
2023/08/20 10:28:22;;;;;;;;;;;;;;;30.33;66.39;96917.13;5045820;28;20136;-74
2023/08/20 10:31:20;;;;;;;;;;;;;;;30.41;63.63;96904.63;5045828;28;19967;-70
2023/08/20 10:33:50;;;;;;;;;;;;;;;30.54;65.50;96908.94;5031354;28;19969;-78
2023/08/20 10:36:16;;;;;;;;;;;;;;;30.67;66.23;96923.28;5046188;28;19953;-79
2023/08/20 10:38:47;;;;;;;;;;;;;;;30.75;64.36;96917.75;5045355;28;19961;-79
2023/08/20 10:41:16;;;;;;;;;;;;;;;30.87;65.06;96914.28;5045860;28;19959;-79
2023/08/20 10:43:53;;;;;;;;;;;;;;;30.98;60.13;96901.06;5045412;28;19949;-80
2023/08/20 10:46:19;;;;;;;;;;;;;;;31.06;62.50;96904.81;5045946;28;19960;-79
2023/08/20 10:48:47;;;;;;;;;;;;;;;31.17;65.37;96926.81;5045391;28;19957;-73
2023/08/20 10:51:14;;;;;;;;;;;;;;;31.27;65.77;96918.22;5045679;28;20134;-83
2023/08/20 10:53:40;;;;;;;;;;;;;;;31.43;63.34;96910.16;5045545;28;20139;-83
2023/08/20 10:56:07;;;;;;;;;;;;;;;31.55;60.96;96905.50;5045512;28;20236;-83
2023/08/20 10:58:33;;;;;;;;;;;;;;;31.59;62.35;96921.88;5045764;28;19973;-83
2023/08/20 11:01:15;;;;;;;;;;;;;;;31.67;62.70;96917.47;5045437;28;20229;-81
2023/08/20 11:03:43;;;;;;;;;;;;;;;31.81;60.94;96906.22;5045455;28;19956;-84
2023/08/20 11:06:09;;;;;;;;;;;;;;;31.95;59.61;96899.25;5045567;28;19957;-72
2023/08/20 11:08:35;;;;;;;;;;;;;;;32.03;58.01;96899.47;5045768;28;19957;-80
2023/08/20 11:11:03;;;;;;;;;;;;;;;32.07;60.05;96903.09;5045009;28;19967;-75
2023/08/20 11:13:30;;;;;;;;;;;;;;;32.06;58.24;96907.69;5044920;28;19980;-75
2023/08/20 11:15:55;;;;;;;;;;;;;;;32.14;58.98;96905.97;5045243;28;19968;-75
2023/08/20 11:18:21;;;;;;;;;;;;;;;32.21;56.02;96898.00;5045080;28;20236;-75
2023/08/20 11:20:47;;;;;;;;;;;;;;;32.23;60.00;96911.22;5027413;28;20163;-74
2023/08/20 11:23:13;;;;;;;;;;;;;;;32.28;60.34;96909.06;5043846;28;20209;-75
2023/08/20 11:25:43;;;;;;;;;;;;;;;32.28;54.20;96895.50;5045062;28;19948;-71
2023/08/20 11:28:09;;;;;;;;;;;;;;;32.26;52.84;96896.97;5044942;28;19953;-73
2023/08/20 11:30:35;;;;;;;;;;;;;;;32.28;59.01;96924.56;5044496;28;20058;-73
2023/08/20 11:33:01;;;;;;;;;;;;;;;32.38;58.17;96912.38;5044912;28;19971;-71
2023/08/20 11:35:28;;;;;;;;;;;;;;;32.41;53.46;96898.91;5044750;28;20144;-74
2023/08/20 11:37:54;;;;;;;;;;;;;;;32.52;53.53;96897.25;5044526;28;19965;-73
2023/08/20 11:40:20;;;;;;;;;;;;;;;32.54;55.33;96900.41;5044869;28;19955;-74
2023/08/20 11:42:46;;;;;;;;;;;;;;;32.54;56.21;96905.84;5027093;28;20289;-73
2023/08/20 11:45:12;;;;;;;;;;;;;;;32.68;58.67;96907.38;5044632;28;19958;-71
2023/08/20 11:47:39;;;;;;;;;;;;;;;32.80;51.64;96887.44;5044871;28;20175;-85
2023/08/20 11:50:05;;;;;;;;;;;;;;;32.82;55.75;96904.97;5026820;28;19958;-85
2023/08/20 11:52:32;;;;;;;;;;;;;;;33.02;56.13;96905.81;5044640;28;19960;-84
2023/08/20 11:54:58;;;;;;;;;;;;;;;33.23;55.88;96905.53;5027366;28;20267;-87
2023/08/20 11:57:24;;;;;;;;;;;;;;;33.30;57.12;96902.97;5044675;28;19957;-85
2023/08/20 11:59:50;;;;;;;;;;;;;;;33.43;58.42;96900.94;5043632;28;19969;-84
2023/08/20 12:02:24;;;;;;;;;;;;;;;33.56;56.42;96893.44;5044664;28;20258;-71
2023/08/20 12:04:50;;;;;;;;;;;;;;;33.67;58.41;96894.44;5044240;28;19959;-79
2023/08/20 12:07:16;;;;;;;;;;;;;;;33.79;57.56;96896.25;5044761;28;19956;-80
2023/08/20 12:09:42;;;;;;;;;;;;;;;33.85;55.01;96885.84;5044209;28;19969;-80
2023/08/20 12:12:08;;;;;;;;;;;;;;;33.84;53.84;96876.91;5044221;28;19958;-80
2023/08/20 12:14:35;;;;;;;;;;;;;;;33.89;55.97;96878.53;5027478;28;20146;-80
2023/08/20 12:17:01;;;;;;;;;;;;;;;33.93;55.24;96880.16;5044559;28;19951;-80
2023/08/20 12:19:26;;;;;;;;;;;;;;;33.96;55.81;96881.41;5044305;28;19950;-84
2023/08/20 12:21:52;;;;;;;;;;;;;;;34.05;56.19;96881.16;5044243;28;19958;-80
2023/08/20 12:24:21;;;;;;;;;;;;;;;34.05;56.47;96878.44;5044248;28;20285;-73
2023/08/20 12:26:47;;;;;;;;;;;;;;;33.93;52.99;96876.66;5044648;28;20000;-71
2023/08/20 12:29:13;;;;;;;;;;;;;;;33.87;57.52;96883.53;5044284;28;20225;-71
2023/08/20 12:31:40;;;;;;;;;;;;;;;33.91;55.25;96879.75;5044565;28;19953;-71
2023/08/20 12:34:06;;;;;;;;;;;;;;;33.99;56.71;96885.31;5044479;28;19992;-71
2023/08/20 12:36:32;;;;;;;;;;;;;;;34.12;57.94;96884.84;5043979;28;20299;-71